Von Ormy, Texas
Current Conditions -  °F | °C
As of 2:58 AM on Friday 24 Oct 2014 (Local Time) from KSKF Reporting Station
Clear Clear  
Wind Chill: 63°   Ceiling: Unl
Heat Index: 63°   Visibility: 10mi
Dew Point: 55°   Wind: 0mph
Humidity: 76%   Direction: NA
Pressure: 30.11"   Gusts: NA
Location:  29.29°N, 98.64°W
Report Text: KSKF 240758Z AUTO 00000KT 10SM CLR 17/13 A3011 RMK AO2 SLP191 T01720130 $
Loading
Personal Weather Stations






























Interactive Weather Map
Tropical Storm Tracking
New forecast layout! Learn more

10-Day Weather Forecast

Advertisements
Track Severe Weather on mobile